CheckWX is a tool to help pilots better visualize weather data.  It is not intended as a substitute for an official pre-flight weather briefing.

02:25:16 UTC

KHND METAR
Henderson Executive Airport
Las Vegas, Nevada, USA
Current

29 mins ago

KHND 250156Z 00000KT 10SM CLR 12/00 A3002 RMK AO2 SLP184 T01220000
Observed
Jan-25 @ 01:56 UTC
Visibility
10 SM
Flight Rules
VFR
Cloud Levels
  • Clear skies
Temperature
12°C / 54°F
Dewpoint
C / 32°F
Humidity
44%
Altimeter
30.02" Hg
Pressure
1016.62 hPa
Previous

1 hour ago

KHND 250056Z 05003KT 10SM CLR 16/00 A3002 RMK AO2 SLP180 T01560000
Observed
Jan-25 @ 00:56 UTC
Wind
  • 050° at 3 KTS
Visibility
10 SM
Flight Rules
VFR
Cloud Levels
  • Clear skies
Temperature
16°C / 61°F
Dewpoint
C / 32°F
Humidity
34%
Altimeter
30.02" Hg
Pressure
1016.62 hPa
Previous

2 hours ago

KHND 242356Z 00000KT 10SM CLR 17/M01 A3002 RMK AO2 SLP178 T01721011 10183 20128 56010
Observed
Jan-24 @ 23:56 UTC
Visibility
10 SM
Flight Rules
VFR
Cloud Levels
  • Clear skies
Temperature
17°C / 63°F
Dewpoint
-1°C / 30°F
Humidity
30%
Altimeter
30.02" Hg
Pressure
1016.62 hPa